This is the latest recevied weather packets stored in our database for station/object N2XP-3. If no packets are shown the sender has not sent any weather packets the latest 10 day(s).
| Time | Temp. | Humidity | Pressure | Rain* | Wind** | Luminosity | Snow |
|---|---|---|---|---|---|---|---|
| 1777897688 | 20° C | 41% | 1011.5 hPa | 0 mm | 0 m/s | - | - |
| 1777897388 | 18.89° C | 42% | 1011.5 hPa | 0 mm | 2.24 m/s, 253° | - | - |
| 1777896482 | 15° C | 51% | 1011.6 hPa | 0 mm | 2.24 m/s, 255° | - | - |
| 1777895874 | 16.11° C | 48% | 1011.6 hPa | 0 mm | 1.79 m/s, 311° | - | - |
| 1777895575 | 16.11° C | 50% | 1011.5 hPa | 0 mm | 1.79 m/s, 225° | - | - |
| 1777895269 | 15.56° C | 51% | 1011.5 hPa | 0 mm | 0 m/s | - | - |
| 1777894969 | 15.56° C | 53% | 1011.6 hPa | 0 mm | 1.34 m/s, 128° | - | - |
| 1777894366 | 16.67° C | 54% | 1011.6 hPa | 0 mm | 0.45 m/s, 257° | - | - |
| 1777894066 | 16.67° C | 55% | 1011.6 hPa | 0 mm | 0.89 m/s, 221° | - | - |
| 1777893760 | 15.56° C | 60% | 1011.5 hPa | 0 mm | 0.89 m/s, 155° | - | - |
| 1777893456 | 13.89° C | 65% | 1011.6 hPa | 0 mm | 0.89 m/s, 236° | - | - |
| 1777893156 | 11.67° C | 73% | 1011.6 hPa | 0 mm | 0.45 m/s, 255° | - | - |
| 1777892857 | 9.44° C | 80% | 1011.6 hPa | 0 mm | 0.89 m/s, 288° | - | - |
| 1777892549 | 8.33° C | 82% | 1011.6 hPa | 0 mm | 0.45 m/s, 250° | - | - |
| 1777891942 | 6.11° C | 90% | 1011.5 hPa | 0 mm | 0 m/s | - | - |
| 1777891634 | 5° C | 88% | 1011.6 hPa | 0 mm | 0 m/s | - | - |
| 1777891334 | 4.44° C | 87% | 1011.5 hPa | 0 mm | 0 m/s | - | - |
| 1777891032 | 4.44° C | 87% | 1011.6 hPa | 0 mm | 0 m/s | - | - |
| 1777890431 | 3.89° C | 87% | 1011.5 hPa | 0 mm | 0 m/s | - | - |
| 1777890207 | 3.89° C | 87% | 1011.5 hPa | 0 mm | 0 m/s | - | - |
| 1777890134 | 3.89° C | 87% | 1011.5 hPa | 0 mm | 0 m/s | - | - |
| 1777889823 | 3.89° C | 87% | 1011.5 hPa | 0 mm | 0 m/s | - | - |
| 1777889520 | 3.89° C | 88% | 1011.6 hPa | 0 mm | 0 m/s | - | - |
| 1777889212 | 3.33° C | 88% | 1011.5 hPa | 0 mm | 0 m/s | - | - |
| 1777888579 | 3.33° C | 88% | 1011.3 hPa | 0 mm | 0 m/s | - | - |
* Rain latest hour (hover to see other rain measurements)
** Current wind speed in m/s (hover to see current wind gust speed)